Time;durP1;ratioP1;P1;durP2;ratioP2;P2;SDS_P1;SDS_P2;PMS_P1;PMS_P2;Temp;Humidity;BMP_temperature;BMP_pressure;BME280_temperature;BME280_humidity;BME280_pressure;Samples;Min_cycle;Max_cycle;Signal;HPM_P1;HPM_P2
2021/06/24 00:02:15;;;;;;;;;10.00;8.75;;;;;22.56;43.96;101626.84;5059461;28;45377;-53
2021/06/24 00:04:41;;;;;;;;;9.25;8.75;;;;;22.58;44.04;101629.41;5059383;28;45619;-52
2021/06/24 00:07:06;;;;;;;;;8.00;7.00;;;;;22.57;44.06;101625.06;5058890;28;46099;-50
2021/06/24 00:09:32;;;;;;;;;9.75;9.00;;;;;22.58;44.08;101621.47;5059069;28;45433;-53
2021/06/24 00:11:57;;;;;;;;;10.75;9.75;;;;;22.57;44.17;101627.69;5059150;28;45252;-53
2021/06/24 00:14:22;;;;;;;;;8.25;8.25;;;;;22.58;43.63;101637.34;5059208;28;45426;-50
2021/06/24 00:16:48;;;;;;;;;6.50;6.50;;;;;22.53;43.87;101625.22;5058914;28;45990;-53
2021/06/24 00:19:13;;;;;;;;;6.75;6.75;;;;;22.55;43.91;101633.91;5059130;28;45340;-54
2021/06/24 00:21:38;;;;;;;;;9.75;9.00;;;;;22.57;43.81;101635.63;5058849;28;45355;-54
2021/06/24 00:24:04;;;;;;;;;10.00;9.00;;;;;22.55;44.00;101628.63;5058907;28;45438;-50
2021/06/24 00:26:30;;;;;;;;;7.75;7.75;;;;;22.55;43.64;101623.34;5058553;28;46170;-50
2021/06/24 00:28:55;;;;;;;;;8.50;8.00;;;;;22.57;43.65;101619.78;5058578;28;45339;-50
2021/06/24 00:31:20;;;;;;;;;6.75;6.75;;;;;22.55;43.83;101618.06;5058941;28;45425;-52
2021/06/24 00:33:46;;;;;;;;;9.50;8.50;;;;;22.55;43.96;101607.50;5057817;28;45484;-52
2021/06/24 00:36:11;;;;;;;;;10.25;9.25;;;;;22.55;44.00;101612.78;5057207;28;45607;-51
2021/06/24 00:38:36;;;;;;;;;7.00;7.00;;;;;;;;5058336;28;45330;-49
2021/06/24 00:41:02;;;;;;;;;9.33;7.00;;;;;22.53;43.73;101606.75;5058611;28;45446;-50
2021/06/24 00:43:28;;;;;;;;;7.25;6.25;;;;;22.53;44.06;101608.50;5058618;28;45524;-50
2021/06/24 00:45:54;;;;;;;;;8.75;7.00;;;;;22.54;43.73;101616.34;5058348;28;46270;-51
2021/06/24 00:48:19;;;;;;;;;11.00;9.00;;;;;22.54;43.82;101621.63;5056904;28;45298;-50
2021/06/24 00:50:46;;;;;;;;;8.00;7.00;;;;;22.54;44.00;101620.78;5058792;28;45264;-51
2021/06/24 00:53:15;;;;;;;;;11.25;6.00;;;;;22.54;43.94;101613.72;5058631;28;45547;-53
2021/06/24 00:55:46;;;;;;;;;9.00;7.75;;;;;22.54;43.72;101604.94;5056959;28;46211;-54
2021/06/24 00:58:20;;;;;;;;;8.00;8.00;;;;;22.50;43.64;101596.31;5056914;28;45703;-52
2021/06/24 01:00:49;;;;;;;;;8.00;8.00;;;;;22.54;43.79;101600.50;5058856;28;45416;-51
2021/06/24 01:03:16;;;;;;;;;5.75;5.75;;;;;22.53;43.98;101598.81;5057359;28;45598;-53
2021/06/24 01:05:42;;;;;;;;;8.00;7.00;;;;;22.50;43.73;101588.41;5058171;28;46597;-49
2021/06/24 01:08:10;;;;;;;;;10.00;8.50;;;;;22.53;44.08;101596.19;5057917;28;45952;-50
2021/06/24 01:10:36;;;;;;;;;5.00;5.00;;;;;22.53;44.11;101592.66;5058285;28;45406;-50
2021/06/24 01:13:03;;;;;;;;;7.00;7.00;;;;;22.53;44.06;101598.81;5058389;28;45463;-50
2021/06/24 01:15:28;;;;;;;;;8.75;6.00;;;;;22.52;43.79;101599.75;5057853;28;45458;-51
2021/06/24 01:17:55;;;;;;;;;9.00;8.00;;;;;22.52;43.76;101605.03;5057883;28;45372;-50
2021/06/24 01:20:26;;;;;;;;;7.25;6.50;;;;;22.49;43.81;101586.69;5058041;28;45410;-52
2021/06/24 01:22:52;;;;;;;;;7.00;6.50;;;;;22.50;43.81;101585.75;5056783;28;45450;-52
2021/06/24 01:25:18;;;;;;;;;10.50;8.00;;;;;22.49;43.54;101586.69;5057982;28;45491;-51
2021/06/24 01:27:44;;;;;;;;;8.50;7.75;;;;;22.52;43.97;101593.59;5057737;28;45366;-54
2021/06/24 01:30:10;;;;;;;;;6.25;6.25;;;;;22.52;43.78;101594.47;5056663;28;45367;-52
2021/06/24 01:32:35;;;;;;;;;7.25;7.25;;;;;22.52;43.90;101590.94;5058306;28;45616;-50
2021/06/24 01:35:02;;;;;;;;;10.50;7.25;;;;;22.49;43.77;101586.69;5056286;28;47309;-50
2021/06/24 01:37:27;;;;;;;;;6.00;5.75;;;;;22.52;43.81;101583.03;5057653;28;45731;-51
2021/06/24 01:39:52;;;;;;;;;7.75;7.25;;;;;22.51;43.84;101584.81;5057517;28;45247;-49
2021/06/24 01:42:18;;;;;;;;;6.75;5.50;;;;;22.52;44.05;101578.63;5058221;28;45295;-50
2021/06/24 01:44:43;;;;;;;;;8.00;8.00;;;;;22.50;43.91;101571.69;5057496;28;45342;-52
2021/06/24 01:47:12;;;;;;;;;8.25;6.00;;;;;22.50;43.93;101572.56;5057561;28;45255;-52
2021/06/24 01:49:37;;;;;;;;;5.50;5.00;;;;;22.50;43.80;101567.28;5057591;28;45405;-54
2021/06/24 01:52:03;;;;;;;;;7.25;7.25;;;;;22.50;43.74;101572.56;5057621;28;45481;-55
2021/06/24 01:54:28;;;;;;;;;8.25;6.50;;;;;22.50;43.96;101577.84;5057287;28;46205;-57
2021/06/24 01:56:53;;;;;;;;;7.50;6.00;;;;;22.49;43.78;101573.47;5057470;28;45389;-58
2021/06/24 01:59:19;;;;;;;;;6.75;6.25;;;;;22.51;43.69;101568.09;5058006;28;45743;-56
2021/06/24 02:01:44;;;;;;;;;8.50;7.00;;;;;22.50;43.80;101558.47;5057559;28;45283;-55
2021/06/24 02:04:10;;;;;;;;;6.00;5.50;;;;;22.49;43.67;101562.06;5057004;28;45356;-51
2021/06/24 02:06:35;;;;;;;;;6.25;6.25;;;;;22.50;43.67;101555.84;5057195;28;45307;-52
2021/06/24 02:09:01;;;;;;;;;9.75;7.75;;;;;22.49;44.01;101555.00;5056972;28;45411;-53
2021/06/24 02:11:26;;;;;;;;;9.75;6.00;;;;;22.46;43.59;101549.84;5057409;28;45635;-53
2021/06/24 02:13:51;;;;;;;;;6.00;5.00;;;;;22.49;43.56;101552.34;5057438;28;46987;-52
2021/06/24 02:16:17;;;;;;;;;10.00;7.00;;;;;22.49;44.11;101555.00;5057080;28;45291;-58
2021/06/24 02:18:43;;;;;;;;;6.00;6.00;;;;;22.46;43.59;101552.50;5056983;28;45372;-51
2021/06/24 02:21:08;;;;;;;;;6.75;6.75;;;;;22.46;44.03;101539.28;5057276;28;45252;-52
2021/06/24 02:23:34;;;;;;;;;9.00;7.25;;;;;22.49;43.97;101547.06;5056766;28;45302;-56
2021/06/24 02:26:00;;;;;;;;;6.00;6.00;;;;;22.47;43.72;101530.44;5056847;28;45215;-55
2021/06/24 02:28:25;;;;;;;;;6.00;6.00;;;;;22.48;43.82;101539.22;5057198;28;45445;-55
2021/06/24 02:30:50;;;;;;;;;6.75;6.75;;;;;22.48;43.76;101542.72;5057376;28;45505;-54
2021/06/24 02:33:18;;;;;;;;;6.00;6.00;;;;;22.47;43.86;101546.28;5056792;28;46273;-53
2021/06/24 02:35:47;;;;;;;;;7.00;6.00;;;;;22.49;43.63;101547.06;5056739;28;45441;-51
2021/06/24 02:38:13;;;;;;;;;6.00;6.00;;;;;22.48;43.85;101540.06;5056679;28;45178;-50
2021/06/24 02:40:39;;;;;;;;;6.00;6.00;;;;;22.47;43.90;101533.09;5056919;28;45451;-50
2021/06/24 02:43:04;;;;;;;;;5.50;5.50;;;;;22.48;44.05;101531.31;5056599;28;45330;-50
2021/06/24 02:45:31;;;;;;;;;6.00;6.00;;;;;22.48;43.71;101533.94;5056396;28;49327;-51
2021/06/24 02:47:56;;;;;;;;;4.00;4.00;;;;;22.48;43.64;101540.06;5056777;28;45352;-50
2021/06/24 02:50:22;;;;;;;;;8.00;6.00;;;;;22.47;43.72;101535.72;5055993;28;45458;-50
2021/06/24 02:52:48;;;;;;;;;7.50;7.00;;;;;22.48;43.96;101537.44;5056388;28;45442;-51
2021/06/24 02:55:13;;;;;;;;;6.75;6.75;;;;;22.47;43.66;101541.00;5055117;28;45507;-54
2021/06/24 02:57:38;;;;;;;;;4.75;4.75;;;;;22.48;43.63;101542.72;5056624;28;45457;-50
2021/06/24 03:00:11;;;;;;;;;7.25;6.00;;;;;22.45;43.54;101537.59;5056631;28;45327;-50
2021/06/24 03:02:36;;;;;;;;;7.25;6.00;;;;;22.47;43.83;101538.38;5056180;28;45323;-50
2021/06/24 03:05:03;;;;;;;;;5.25;5.25;;;;;22.47;43.55;101533.09;5056212;28;45319;-49
2021/06/24 03:07:29;;;;;;;;;8.00;6.25;;;;;22.48;43.53;101536.59;5055186;28;45359;-52
2021/06/24 03:09:54;;;;;;;;;6.00;6.00;;;;;22.48;43.61;101540.06;5057002;28;45686;-50
2021/06/24 03:12:19;;;;;;;;;7.75;6.75;;;;;22.47;43.51;101546.28;5055987;28;51653;-50
2021/06/24 03:14:45;;;;;;;;;7.00;7.00;;;;;22.46;43.54;101539.28;5056305;28;45824;-55
2021/06/24 03:17:10;;;;;;;;;7.75;6.50;;;;;22.46;43.76;101539.28;5056269;28;45439;-52
2021/06/24 03:19:36;;;;;;;;;7.75;6.75;;;;;22.47;43.69;101533.09;5056495;28;45474;-52
2021/06/24 03:22:01;;;;;;;;;4.25;4.25;;;;;22.47;43.63;101534.88;5057082;28;47272;-52
2021/06/24 03:24:27;;;;;;;;;6.00;6.00;;;;;22.48;43.78;101541.88;5059689;28;45372;-57
2021/06/24 03:26:52;;;;;;;;;7.50;6.00;;;;;22.47;43.73;101534.88;5060142;28;45406;-55
2021/06/24 03:29:17;;;;;;;;;6.00;6.00;;;;;22.46;43.51;101534.00;5060047;28;45417;-56
2021/06/24 03:31:43;;;;;;;;;6.00;6.00;;;;;22.46;43.72;101544.56;5059442;28;45324;-55
2021/06/24 03:34:08;;;;;;;;;8.00;7.00;;;;;22.46;43.73;101538.44;5059604;28;45230;-58
2021/06/24 03:36:34;;;;;;;;;7.50;5.75;;;;;22.45;43.69;101537.59;5059641;28;45234;-58
2021/06/24 03:38:59;;;;;;;;;6.75;6.75;;;;;22.47;43.57;101540.16;5059365;28;45529;-55
2021/06/24 03:41:25;;;;;;;;;9.25;7.75;;;;;22.45;43.44;101532.31;5059526;28;51337;-57
2021/06/24 03:43:53;;;;;;;;;7.00;6.50;;;;;22.46;43.39;101541.94;5059254;28;45699;-56
2021/06/24 03:46:18;;;;;;;;;6.50;6.50;;;;;22.43;43.60;101534.19;5059484;28;45344;-53
2021/06/24 03:48:44;;;;;;;;;7.75;5.00;;;;;22.45;43.54;101536.75;5059575;28;45445;-52
2021/06/24 03:51:09;;;;;;;;;6.25;5.25;;;;;22.46;43.52;101531.38;5057957;28;47522;-58
2021/06/24 03:53:35;;;;;;;;;9.25;6.00;;;;;22.41;43.68;101522.84;5057943;28;45334;-58
2021/06/24 03:56:01;;;;;;;;;6.75;6.75;;;;;22.46;43.53;101530.53;5059510;28;45332;-58
2021/06/24 03:58:26;;;;;;;;;7.00;6.25;;;;;22.45;43.56;101540.22;5059835;28;45277;-51
2021/06/24 04:00:52;;;;;;;;;8.75;7.00;;;;;22.46;43.05;101536.66;5059231;28;46117;-49
2021/06/24 04:03:18;;;;;;;;;6.50;5.00;;;;;22.46;43.46;101546.38;5059207;28;45240;-51
2021/06/24 04:05:44;;;;;;;;;6.00;6.00;;;;;22.46;43.46;101539.28;5059393;28;45375;-51
2021/06/24 04:08:09;;;;;;;;;5.00;5.00;;;;;22.45;43.66;101537.59;5059363;28;45268;-51
2021/06/24 04:10:36;;;;;;;;;5.50;4.75;;;;;22.46;43.65;101533.16;5059016;28;46009;-51
2021/06/24 04:13:03;;;;;;;;;6.00;6.00;;;;;22.45;43.38;101540.22;5058927;28;45783;-54
2021/06/24 04:15:29;;;;;;;;;7.50;6.00;;;;;22.45;43.48;101540.22;5059152;28;45345;-49
2021/06/24 04:17:56;;;;;;;;;5.00;5.00;;;;;22.45;43.39;101542.03;5059510;28;45548;-50
2021/06/24 04:20:22;;;;;;;;;4.75;4.75;;;;;22.45;43.68;101536.75;5058887;28;46982;-50
2021/06/24 04:22:48;;;;;;;;;5.75;5.75;;;;;22.44;43.19;101535.88;5058861;28;45686;-51
2021/06/24 04:25:15;;;;;;;;;6.50;6.50;;;;;22.44;43.66;101535.88;5057558;28;45253;-53
2021/06/24 04:27:41;;;;;;;;;7.00;5.00;;;;;22.44;43.37;101541.16;5059081;28;45324;-50
2021/06/24 04:30:08;;;;;;;;;6.00;5.50;;;;;22.44;43.20;101551.72;5058521;28;45410;-50
2021/06/24 04:32:34;;;;;;;;;10.00;6.00;;;;;22.43;43.50;101544.75;5058564;28;45343;-52
2021/06/24 04:34:59;;;;;;;;;5.25;5.25;;;;;22.43;43.53;101555.31;5058792;28;45357;-53
2021/06/24 04:37:24;;;;;;;;;7.25;5.00;;;;;22.43;43.65;101549.16;5059225;28;45353;-53
2021/06/24 04:39:50;;;;;;;;;6.50;6.50;;;;;22.43;43.41;101555.31;5058408;28;45343;-52
2021/06/24 04:42:16;;;;;;;;;6.75;6.75;;;;;22.44;43.15;101556.16;5058644;28;45316;-57
2021/06/24 04:44:41;;;;;;;;;5.00;5.00;;;;;22.42;43.48;101558.91;5058473;28;45266;-54
2021/06/24 04:47:07;;;;;;;;;5.25;5.25;;;;;22.44;43.39;101564.09;5057483;28;45546;-55
2021/06/24 04:49:32;;;;;;;;;5.25;5.25;;;;;22.41;43.32;101562.47;5058423;28;45448;-50
2021/06/24 04:51:58;;;;;;;;;5.00;4.75;;;;;22.43;43.18;101565.88;5058744;28;45342;-49
2021/06/24 04:54:23;;;;;;;;;5.50;5.50;;;;;22.43;43.27;101570.31;5058610;28;45288;-51
2021/06/24 04:56:49;;;;;;;;;6.25;5.25;;;;;22.43;43.02;101571.19;5058842;28;45541;-51
2021/06/24 04:59:14;;;;;;;;;6.75;5.75;;;;;22.43;43.21;101560.59;5058231;28;46265;-54
2021/06/24 05:01:39;;;;;;;;;6.50;6.00;;;;;22.41;43.21;101561.59;5057063;28;45707;-51
2021/06/24 05:04:05;;;;;;;;;6.75;6.50;;;;;22.44;43.29;101572.00;5058310;28;45836;-49
2021/06/24 05:06:30;;;;;;;;;8.50;6.75;;;;;22.44;43.28;101562.28;5058959;28;45629;-53
2021/06/24 05:08:56;;;;;;;;;3.25;3.25;;;;;22.43;43.27;101565.88;5058569;28;45528;-49
2021/06/24 05:11:21;;;;;;;;;4.75;4.75;;;;;22.43;43.19;101565.03;5056769;28;45350;-50
2021/06/24 05:13:47;;;;;;;;;5.00;5.00;;;;;22.43;43.22;101573.81;5058299;28;45311;-50
2021/06/24 05:16:15;;;;;;;;;6.75;6.00;;;;;22.43;43.24;101568.53;5058374;28;45464;-50
2021/06/24 05:18:50;;;;;;;;;5.75;5.00;;;;;22.41;43.11;101567.75;5056889;28;46946;-49
2021/06/24 05:21:17;;;;;;;;;4.50;4.50;;;;;22.44;43.19;101564.09;5058352;28;45307;-50
2021/06/24 05:23:44;;;;;;;;;5.50;4.75;;;;;22.44;43.19;101572.00;5058348;28;45218;-54
2021/06/24 05:26:10;;;;;;;;;5.75;5.00;;;;;22.44;42.96;101574.66;5058352;28;45421;-51
2021/06/24 05:28:35;;;;;;;;;7.25;6.00;;;;;22.43;42.87;101571.19;5057566;28;47375;-49
2021/06/24 05:31:02;;;;;;;;;5.50;5.50;;;;;22.41;43.21;101565.09;5056808;28;45371;-50
2021/06/24 05:33:27;;;;;;;;;5.50;5.00;;;;;22.41;43.14;101562.47;5058223;28;45528;-50
2021/06/24 05:35:53;;;;;;;;;6.75;6.75;;;;;22.43;43.22;101560.59;5056699;28;45397;-50
2021/06/24 05:38:18;;;;;;;;;5.25;5.25;;;;;22.41;42.93;101559.81;5057524;28;46324;-50
2021/06/24 05:40:46;;;;;;;;;7.50;5.00;;;;;22.42;43.03;101553.63;5057678;28;45379;-50
2021/06/24 05:43:12;;;;;;;;;5.00;5.00;;;;;22.41;42.83;101557.19;5057357;28;45315;-51
2021/06/24 05:45:38;;;;;;;;;5.50;5.50;;;;;22.41;42.99;101558.97;5073101;28;45527;-52
2021/06/24 05:48:04;;;;;;;;;7.50;7.50;;;;;22.38;43.02;101554.66;5057361;28;46645;-51
2021/06/24 05:50:29;;;;;;;;;6.50;6.00;;;;;22.39;43.24;101559.84;5057789;28;45320;-52
2021/06/24 05:52:55;;;;;;;;;7.75;6.00;;;;;22.42;43.06;101555.38;5057508;28;45339;-50
2021/06/24 05:58:10;;;;;;;;;5.00;5.00;;;;;22.42;42.96;101568.59;5056990;28;45486;-52
2021/06/24 06:00:36;;;;;;;;;4.00;4.00;;;;;22.40;43.17;101571.28;5057341;28;45378;-53
2021/06/24 06:03:01;;;;;;;;;6.00;5.25;;;;;22.42;42.97;101579.16;5057785;28;45414;-53
2021/06/24 06:05:27;;;;;;;;;6.00;4.00;;;;;22.41;43.23;101567.75;5056168;28;45669;-51
2021/06/24 06:07:52;;;;;;;;;7.25;7.25;;;;;22.39;43.10;101574.88;5057162;28;46076;-54
2021/06/24 06:10:18;;;;;;;;;7.00;5.00;;;;;22.41;43.07;101572.16;5057309;28;45397;-50
2021/06/24 06:12:43;;;;;;;;;7.00;5.25;;;;;22.39;43.17;101569.59;5057317;28;45276;-50
2021/06/24 06:15:09;;;;;;;;;6.75;5.50;;;;;22.41;42.90;101582.72;5057410;28;45383;-51
2021/06/24 06:17:34;;;;;;;;;6.00;6.00;;;;;22.41;42.80;101583.59;5056930;28;45567;-50
2021/06/24 06:20:00;;;;;;;;;5.75;5.75;;;;;22.40;42.96;101579.22;5057393;28;45286;-50
2021/06/24 06:22:25;;;;;;;;;5.00;5.00;;;;;22.41;43.30;101588.88;5056909;28;45529;-50
2021/06/24 06:24:50;;;;;;;;;5.00;5.00;;;;;22.40;43.30;101576.56;5057077;28;45307;-49
2021/06/24 06:27:16;;;;;;;;;6.00;5.75;;;;;22.42;42.95;101584.44;5055564;28;46257;-56
2021/06/24 06:29:41;;;;;;;;;7.50;6.00;;;;;22.41;43.17;101583.59;5056739;28;45339;-57
2021/06/24 06:32:07;;;;;;;;;5.00;4.00;;;;;22.38;42.97;101578.44;5057008;28;45598;-52
2021/06/24 06:34:32;;;;;;;;;6.50;6.50;;;;;22.41;42.82;101588.88;5057498;28;45326;-53
2021/06/24 06:36:57;;;;;;;;;6.25;5.75;;;;;22.42;42.80;101601.16;5056817;28;46017;-50
2021/06/24 06:39:23;;;;;;;;;5.50;5.50;;;;;22.42;42.89;101603.78;5054909;28;45856;-50
2021/06/24 06:41:48;;;;;;;;;7.25;6.25;;;;;22.42;43.03;101600.28;5056886;28;45585;-49
2021/06/24 06:44:14;;;;;;;;;4.50;4.50;;;;;22.40;42.90;101592.41;5057025;28;45680;-50
2021/06/24 06:46:39;;;;;;;;;5.50;5.50;;;;;22.42;43.01;101590.59;5055223;28;45984;-54
2021/06/24 06:49:05;;;;;;;;;6.75;6.00;;;;;22.41;42.91;101598.56;5055563;28;45389;-50
2021/06/24 06:51:30;;;;;;;;;5.25;5.25;;;;;22.41;42.69;101599.44;5057265;28;45250;-52
2021/06/24 06:53:56;;;;;;;;;7.00;6.00;;;;;22.41;43.11;101599.44;5056776;28;45173;-51
2021/06/24 06:56:21;;;;;;;;;8.75;5.00;;;;;22.41;43.15;101596.81;5055050;28;52961;-51
2021/06/24 06:58:46;;;;;;;;;6.00;5.00;;;;;22.41;43.02;101599.44;5056525;28;45410;-52
2021/06/24 07:01:12;;;;;;;;;6.25;6.25;;;;;22.41;42.84;101604.72;5056745;28;45326;-52
2021/06/24 07:03:37;;;;;;;;;5.75;5.25;;;;;22.39;42.82;101599.47;5056754;28;45561;-53
2021/06/24 07:06:02;;;;;;;;;6.00;5.00;;;;;22.41;42.78;101607.38;5056707;28;46161;-51
2021/06/24 07:08:28;;;;;;;;;7.25;6.00;;;;;22.41;43.16;101609.13;5056214;28;45267;-53
2021/06/24 07:10:53;;;;;;;;;5.75;5.75;;;;;22.40;42.94;101608.28;5056708;28;45215;-50
2021/06/24 07:13:19;;;;;;;;;6.50;4.75;;;;;22.40;42.81;101603.00;5056620;28;45218;-52
2021/06/24 07:15:44;;;;;;;;;7.25;5.50;;;;;22.39;43.10;101609.19;5056311;28;46921;-52
2021/06/24 07:18:12;;;;;;;;;6.00;5.00;;;;;22.39;42.90;101607.41;5056302;28;45437;-57
2021/06/24 07:20:38;;;;;;;;;7.00;6.00;;;;;22.36;42.61;101604.06;5056709;28;45390;-49
2021/06/24 07:23:03;;;;;;;;;5.00;5.00;;;;;22.37;42.62;101603.13;5056753;28;45501;-50
2021/06/24 07:25:29;;;;;;;;;5.25;5.25;;;;;22.39;42.77;101601.28;5054644;28;46198;-50
2021/06/24 07:27:54;;;;;;;;;5.50;4.75;;;;;22.39;42.81;101601.28;5056109;28;45518;-50
2021/06/24 07:30:20;;;;;;;;;7.75;5.25;;;;;22.39;42.68;101601.28;5056366;28;45346;-53
2021/06/24 07:32:45;;;;;;;;;7.25;5.25;;;;;22.37;42.90;101601.38;5056410;28;45604;-49
2021/06/24 07:35:11;;;;;;;;;7.75;6.25;;;;;22.39;42.90;101606.56;5056012;28;46128;-51
2021/06/24 07:37:36;;;;;;;;;6.50;6.50;;;;;22.39;42.89;101606.56;5056275;28;45332;-53
2021/06/24 07:40:06;;;;;;;;;4.25;4.25;;;;;22.39;42.96;101611.84;5056353;28;45489;-52
2021/06/24 07:42:31;;;;;;;;;5.50;5.50;;;;;22.38;42.77;101604.84;5054926;28;45666;-50
2021/06/24 07:44:57;;;;;;;;;6.75;5.25;;;;;22.33;42.65;101593.66;5055616;28;46278;-51
2021/06/24 07:47:22;;;;;;;;;6.25;5.00;;;;;22.36;42.86;101601.41;5055979;28;45359;-51
2021/06/24 07:49:47;;;;;;;;;6.25;5.25;;;;;22.39;42.63;101606.56;5056004;28;45347;-53
2021/06/24 07:52:23;;;;;;;;;6.75;6.75;;;;;22.38;42.68;101602.19;5056294;28;45394;-54
2021/06/24 07:54:49;;;;;;;;;6.75;6.75;;;;;22.38;42.90;101607.50;5054443;28;47618;-58
2021/06/24 07:57:14;;;;;;;;;5.50;5.50;;;;;22.41;42.57;101609.13;5056079;28;45704;-58
2021/06/24 07:59:39;;;;;;;;;6.00;6.00;;;;;22.41;42.83;101609.13;5054870;28;45364;-50
2021/06/24 08:02:05;;;;;;;;;6.50;6.50;;;;;22.41;42.67;101610.00;5056230;28;45313;-51
2021/06/24 08:04:33;;;;;;;;;7.25;5.25;;;;;22.42;42.73;101610.84;5055622;28;46326;-53
2021/06/24 08:06:58;;;;;;;;;6.75;6.75;;;;;22.42;42.90;101610.84;5055147;28;45276;-50
2021/06/24 08:09:24;;;;;;;;;8.50;8.50;;;;;22.42;42.58;101609.09;5059298;28;45759;-51
2021/06/24 08:11:49;;;;;;;;;3.50;2.00;;;;;22.42;42.87;101614.38;5059252;28;49164;-49
2021/06/24 08:14:14;;;;;;;;;5.50;5.50;;;;;22.43;42.56;101604.63;5057772;28;46998;-51
2021/06/24 08:16:40;;;;;;;;;8.00;5.00;;;;;22.43;42.70;101613.44;5059290;28;45358;-56
2021/06/24 08:19:06;;;;;;;;;5.50;5.50;;;;;22.42;42.54;101601.16;5059369;28;45233;-54
2021/06/24 08:21:32;;;;;;;;;7.50;7.00;;;;;22.44;42.78;101609.00;5058043;28;45355;-53
2021/06/24 08:23:57;;;;;;;;;7.25;6.00;;;;;22.44;42.80;101607.19;5057526;28;47450;-50
2021/06/24 08:26:22;;;;;;;;;7.00;7.00;;;;;22.43;42.76;101613.44;5058810;28;45367;-56
2021/06/24 08:28:48;;;;;;;;;9.75;8.25;;;;;22.45;42.74;101611.53;5059042;28;45293;-54
2021/06/24 08:31:13;;;;;;;;;7.25;6.00;;;;;22.46;42.55;101610.63;5059087;28;45385;-52
2021/06/24 08:33:39;;;;;;;;;6.00;6.00;;;;;22.46;42.72;101615.06;5059147;28;45371;-50
2021/06/24 08:36:05;;;;;;;;;8.25;5.25;;;;;22.46;42.83;101618.53;5058845;28;45392;-56
2021/06/24 08:38:31;;;;;;;;;5.75;5.75;;;;;22.46;42.79;101617.69;5058679;28;45339;-55
2021/06/24 08:40:56;;;;;;;;;7.50;7.50;;;;;22.47;42.68;101619.41;5057439;28;45250;-51
2021/06/24 08:43:22;;;;;;;;;5.50;5.50;;;;;22.45;42.87;101615.97;5057219;28;47870;-52
2021/06/24 08:45:47;;;;;;;;;6.00;6.00;;;;;22.47;42.60;101617.59;5058307;28;45378;-53
2021/06/24 08:48:14;;;;;;;;;8.25;7.00;;;;;22.45;42.66;101616.81;5058431;28;45286;-52
2021/06/24 08:50:50;;;;;;;;;6.50;6.50;;;;;22.48;43.09;101621.97;5058919;28;45483;-55
2021/06/24 08:53:20;;;;;;;;;7.00;7.00;;;;;22.48;42.59;101621.97;5058267;28;46244;-49
2021/06/24 08:55:50;;;;;;;;;5.75;5.75;;;;;22.48;42.71;101616.69;5058347;28;45453;-52
2021/06/24 08:58:15;;;;;;;;;6.00;6.00;;;;;22.50;42.82;101619.22;5058473;28;45173;-50
2021/06/24 09:00:42;;;;;;;;;8.00;6.00;;;;;22.49;42.80;101623.66;5059008;28;45343;-52
2021/06/24 09:03:22;;;;;;;;;5.75;5.50;;;;;22.49;42.89;101614.91;5057241;28;46596;-49
2021/06/24 09:06:02;;;;;;;;;8.50;6.25;;;;;22.49;42.79;101618.38;5057044;28;45697;-54
2021/06/24 09:08:52;;;;;;;;;8.00;8.00;;;;;22.50;42.89;101620.09;5058380;28;45869;-51
2021/06/24 09:11:25;;;;;;;;;8.00;7.00;;;;;22.51;42.94;101627.09;5058489;28;45504;-52
2021/06/24 09:14:11;;;;;;;;;8.00;8.00;;;;;22.52;42.82;101630.56;5058188;28;46520;-53
2021/06/24 09:16:43;;;;;;;;;9.00;7.00;;;;;22.52;42.81;101622.66;5056750;28;45502;-50
2021/06/24 09:19:13;;;;;;;;;7.00;7.00;;;;;22.54;42.90;101631.34;5057509;28;45413;-57
2021/06/24 09:21:38;;;;;;;;;7.25;6.25;;;;;22.51;42.92;101627.09;5058625;28;45242;-55
2021/06/24 09:24:20;;;;;;;;;6.75;6.75;;;;;22.49;42.64;101626.31;5057701;28;47603;-55
2021/06/24 09:26:45;;;;;;;;;9.50;6.75;;;;;22.46;42.67;101618.53;5057879;28;45788;-57
2021/06/24 09:29:15;;;;;;;;;7.75;7.25;;;;;22.52;42.97;101628.81;5058227;28;45252;-54
2021/06/24 09:31:42;;;;;;;;;7.75;7.25;;;;;22.52;42.95;101626.16;5058521;28;45365;-56
2021/06/24 09:34:10;;;;;;;;;7.50;7.50;;;;;22.52;42.51;101634.09;5057739;28;45603;-54
2021/06/24 09:36:41;;;;;;;;;7.00;7.00;;;;;22.54;42.44;101626.91;5057790;28;45268;-50
2021/06/24 09:39:10;;;;;;;;;9.75;8.00;;;;;22.54;42.51;101634.00;5057872;28;45397;-52
2021/06/24 09:41:36;;;;;;;;;8.00;8.00;;;;;22.54;42.68;101631.34;5058065;28;45344;-55
2021/06/24 09:44:18;;;;;;;;;8.00;8.00;;;;;22.55;42.80;101633.91;5057543;28;46238;-56
2021/06/24 09:46:44;;;;;;;;;8.25;7.50;;;;;22.53;42.42;101630.53;5057743;28;45923;-57
2021/06/24 09:49:09;;;;;;;;;7.25;7.25;;;;;22.56;42.93;101632.13;5056664;28;45336;-57
2021/06/24 09:51:37;;;;;;;;;8.00;7.25;;;;;22.57;42.82;101641.78;5057737;28;45303;-57
2021/06/24 09:54:06;;;;;;;;;7.00;6.75;;;;;22.57;42.78;101639.13;5057397;28;46358;-54
2021/06/24 09:56:33;;;;;;;;;6.75;6.75;;;;;22.56;42.80;101645.34;5057455;28;45445;-57
2021/06/24 09:59:03;;;;;;;;;7.00;7.00;;;;;22.57;42.52;101644.41;5057626;28;45358;-57
2021/06/24 10:01:36;;;;;;;;;10.75;10.00;;;;;22.57;42.47;101632.97;5057723;28;45458;-49
2021/06/24 10:04:05;;;;;;;;;8.75;7.00;;;;;22.57;42.83;101647.06;5056888;28;46262;-52
2021/06/24 10:06:30;;;;;;;;;7.25;7.25;;;;;22.58;42.78;101651.41;5057381;28;45268;-49
2021/06/24 10:08:57;;;;;;;;;7.25;7.00;;;;;22.58;42.83;101654.06;5057358;28;45209;-50
2021/06/24 10:11:23;;;;;;;;;8.50;8.50;;;;;22.57;42.60;101651.47;5057370;28;45466;-49
2021/06/24 10:13:50;;;;;;;;;8.00;8.00;;;;;22.58;42.81;101653.19;5056856;28;45480;-49
2021/06/24 10:16:16;;;;;;;;;8.50;6.50;;;;;22.58;42.55;101647.91;5057449;28;45805;-49
2021/06/24 10:18:47;;;;;;;;;4.75;4.75;;;;;22.57;42.76;101649.69;5057519;28;45356;-49
2021/06/24 10:21:16;;;;;;;;;7.50;7.25;;;;;22.58;42.86;101651.41;5057647;28;45473;-51
2021/06/24 10:23:47;;;;;;;;;6.00;6.00;;;;;22.55;42.86;101649.75;5057118;28;45336;-49
2021/06/24 10:26:14;;;;;;;;;6.25;6.25;;;;;22.57;42.40;101646.19;5057261;28;45342;-49
2021/06/24 10:28:40;;;;;;;;;6.75;6.75;;;;;22.57;42.42;101662.91;5057065;28;45338;-49
2021/06/24 10:31:05;;;;;;;;;7.00;7.00;;;;;22.57;42.87;101649.69;5057145;28;45595;-52
2021/06/24 10:33:54;;;;;;;;;9.75;6.75;;;;;22.58;42.85;101647.91;5056741;28;45360;-49
2021/06/24 10:36:19;;;;;;;;;8.50;8.00;;;;;22.57;42.56;101646.19;5056825;28;45280;-49
2021/06/24 10:38:47;;;;;;;;;9.25;7.25;;;;;22.57;42.89;101651.47;5057108;28;45312;-52
2021/06/24 10:41:13;;;;;;;;;8.00;8.00;;;;;22.57;42.59;101648.81;5057221;28;45321;-50
2021/06/24 10:43:46;;;;;;;;;8.50;8.50;;;;;22.58;42.72;101647.91;5056639;28;46192;-49
2021/06/24 10:46:15;;;;;;;;;8.00;8.00;;;;;22.54;42.54;101642.75;5056922;28;45853;-51
2021/06/24 10:48:40;;;;;;;;;7.75;7.75;;;;;22.58;42.88;101645.25;5056833;28;45425;-50
2021/06/24 10:51:08;;;;;;;;;7.50;7.50;;;;;22.58;42.48;101645.25;5056865;28;45583;-50
2021/06/24 10:53:35;;;;;;;;;8.25;8.25;;;;;22.61;42.53;101637.19;5056297;28;46353;-51
2021/06/24 10:56:01;;;;;;;;;9.25;9.00;;;;;22.62;42.37;101644.19;5056713;28;45183;-50
2021/06/24 10:58:34;;;;;;;;;10.50;8.75;;;;;22.62;42.36;101645.03;5055506;28;45391;-53
2021/06/24 11:01:00;;;;;;;;;9.75;7.75;;;;;22.63;42.31;101645.88;5056682;28;45412;-49
2021/06/24 11:03:32;;;;;;;;;7.00;7.00;;;;;22.64;42.61;101643.16;5056276;28;46089;-48
2021/06/24 11:06:16;;;;;;;;;10.50;8.50;;;;;22.65;42.57;101639.59;5056250;28;45251;-50
2021/06/24 11:08:43;;;;;;;;;7.00;7.00;;;;;22.65;42.35;101633.47;5056548;28;45252;-50
2021/06/24 11:11:17;;;;;;;;;6.75;6.75;;;;;22.66;42.42;101637.78;5056601;28;45499;-55
2021/06/24 11:13:48;;;;;;;;;6.25;6.25;;;;;22.65;42.49;101629.03;5056142;28;46219;-53
2021/06/24 11:16:13;;;;;;;;;8.25;7.75;;;;;22.68;42.51;101628.00;5056240;28;45461;-49
2021/06/24 11:18:44;;;;;;;;;11.25;9.50;;;;;22.69;42.50;101629.72;5056292;28;45384;-50
2021/06/24 11:21:22;;;;;;;;;6.50;6.50;;;;;22.69;42.49;101624.41;5056494;28;45406;-50
2021/06/24 11:23:58;;;;;;;;;8.25;8.25;;;;;22.72;42.09;101626.03;5054940;28;47243;-50
2021/06/24 11:26:24;;;;;;;;;7.00;7.00;;;;;22.72;42.22;101618.13;5056103;28;45821;-55